Aeroporto :
LOGIN :

Iscrizione | Disclaimer

   EN    FR    IT 

 










Sommario :    VFR   VFR Marginale   IFR   IFR Intensivo   IFR Molto Intensivo
Visibilità : 
Base nubi : 
>= 8 km
>= 3000ft
5 / 8 km
1000 / 3000 ft
1500m / 5 km
500 / 1000 ft
800 / 1500m
200 / 500 ft
< 800m
< 200 ft
Simboli :   Temporali  Nebbia  Neve Forte  Precipitazioni Forti  Vento > 20 kt
SIGMETs :   Varie  Temporali  Ghiacco  Turbolenza  Onda orograficha  Ceneri Vulcaniche






- Altitudine del aeroporto : 288 ft
- Codice IATA : BZZ


EGVN - RAF Brize Norton

ULTIMO METAR :
  • 291720Z 25001KT CAVOK 16/08 Q1015 NOSIG RMK BLU BLU

METARs OBSOLETI :
  • 291650Z 28001KT 9999 FEW035 SCT060 17/07 Q1015 NOSIG RMK BLU BLU
  • 291620Z 28003KT 9999 FEW035 SCT060 17/07 Q1015 NOSIG RMK BLU BLU
  • 291550Z 29005KT 9999 FEW035 18/07 Q1015 NOSIG RMK BLU BLU
  • 291519Z 28005KT 9999 FEW035 18/07 Q1015 NOSIG RMK BLU BLU
  • 291450Z 29005KT 9999 FEW035 18/07 Q1015 NOSIG

TAF COR TAF EGVN
Valido dal 29 a 18 ore il 30 a 18 ore UTC


291650Z 2918/3018 25006KT 9999 FEW045
BECMG 3010/3012 BKN015
PROB40
TEMPO 3010/3012 7000 -RA
TEMPO 3012/3018 5000 RA BKN008
PROB40
TEMPO 3012/3018 4000 RADZ
PROB30
TEMPO 3015/3018 18015G25KT 3000 +RA SCT006



MetMap, La meteo Aeronautica in un colpo d'occhio ! - Copyright ORBIFLY Dicembre 2007 - Disclaimer

ORBIFLY MET'MAP TEAM :

Programmazione e sviluppo : Alexandra Zaïnal
Concezione : Baudouin d'Aumeries
Aiuto per la programmazione : Marc-Olivier Méhu
Supporto tecnico e logistico : Manuel Goepfert
Aiuto per la traduzione : Arnaldo La Scala

Contatto : metmap@orbifly.com




FONTI E CREDITI :

   NOAA